sensor_id;sensor_type;location;lat;lon;timestamp;P1;durP1;ratioP1;P2;durP2;ratioP2
64550;SDS011;74341;44.510;-123.270;2024-02-21T00:01:13;3.90;;;2.70;;
64550;SDS011;74341;44.510;-123.270;2024-02-21T00:03:41;3.47;;;2.60;;
64550;SDS011;74341;44.510;-123.270;2024-02-21T00:06:08;4.00;;;2.90;;
64550;SDS011;74341;44.510;-123.270;2024-02-21T00:08:34;5.22;;;2.95;;
64550;SDS011;74341;44.510;-123.270;2024-02-21T00:11:00;4.70;;;3.38;;
64550;SDS011;74341;44.510;-123.270;2024-02-21T00:13:27;5.80;;;2.97;;
64550;SDS011;74341;44.510;-123.270;2024-02-21T00:15:53;10.00;;;8.60;;
64550;SDS011;74341;44.510;-123.270;2024-02-21T00:20:46;7.70;;;5.38;;
64550;SDS011;74341;44.510;-123.270;2024-02-21T00:23:12;13.35;;;5.55;;
64550;SDS011;74341;44.510;-123.270;2024-02-21T00:25:39;10.77;;;5.50;;
64550;SDS011;74341;44.510;-123.270;2024-02-21T00:28:05;13.88;;;8.18;;
64550;SDS011;74341;44.510;-123.270;2024-02-21T00:30:33;17.38;;;9.35;;
64550;SDS011;74341;44.510;-123.270;2024-02-21T00:33:00;9.10;;;5.90;;
64550;SDS011;74341;44.510;-123.270;2024-02-21T00:35:26;11.32;;;6.55;;
64550;SDS011;74341;44.510;-123.270;2024-02-21T00:37:53;8.52;;;5.30;;
64550;SDS011;74341;44.510;-123.270;2024-02-21T00:40:19;7.90;;;4.95;;
64550;SDS011;74341;44.510;-123.270;2024-02-21T00:42:47;8.43;;;4.85;;
64550;SDS011;74341;44.510;-123.270;2024-02-21T00:45:14;7.93;;;4.97;;
64550;SDS011;74341;44.510;-123.270;2024-02-21T00:47:41;7.40;;;4.72;;
64550;SDS011;74341;44.510;-123.270;2024-02-21T00:50:07;7.75;;;4.78;;
64550;SDS011;74341;44.510;-123.270;2024-02-21T00:52:34;8.15;;;4.80;;
64550;SDS011;74341;44.510;-123.270;2024-02-21T00:55:01;9.32;;;5.78;;
64550;SDS011;74341;44.510;-123.270;2024-02-21T00:57:27;8.23;;;4.68;;
64550;SDS011;74341;44.510;-123.270;2024-02-21T00:59:54;8.10;;;5.30;;
64550;SDS011;74341;44.510;-123.270;2024-02-21T01:02:20;8.13;;;5.15;;
64550;SDS011;74341;44.510;-123.270;2024-02-21T01:04:46;10.75;;;5.30;;
64550;SDS011;74341;44.510;-123.270;2024-02-21T01:07:13;6.05;;;4.40;;
64550;SDS011;74341;44.510;-123.270;2024-02-21T01:09:39;8.73;;;4.28;;
64550;SDS011;74341;44.510;-123.270;2024-02-21T01:12:06;5.30;;;3.67;;
64550;SDS011;74341;44.510;-123.270;2024-02-21T01:14:32;5.85;;;3.65;;
64550;SDS011;74341;44.510;-123.270;2024-02-21T01:16:58;6.93;;;4.00;;
64550;SDS011;74341;44.510;-123.270;2024-02-21T01:19:25;5.45;;;3.45;;
64550;SDS011;74341;44.510;-123.270;2024-02-21T01:21:52;4.90;;;3.28;;
64550;SDS011;74341;44.510;-123.270;2024-02-21T01:24:18;5.18;;;3.97;;
64550;SDS011;74341;44.510;-123.270;2024-02-21T01:26:45;5.10;;;3.40;;
64550;SDS011;74341;44.510;-123.270;2024-02-21T01:29:12;5.57;;;3.70;;
64550;SDS011;74341;44.510;-123.270;2024-02-21T01:31:38;6.30;;;4.25;;
64550;SDS011;74341;44.510;-123.270;2024-02-21T01:34:04;5.43;;;3.83;;
64550;SDS011;74341;44.510;-123.270;2024-02-21T01:36:31;4.50;;;3.53;;
64550;SDS011;74341;44.510;-123.270;2024-02-21T01:38:58;7.40;;;4.07;;
64550;SDS011;74341;44.510;-123.270;2024-02-21T01:41:24;7.55;;;3.33;;
64550;SDS011;74341;44.510;-123.270;2024-02-21T01:43:51;6.80;;;3.92;;
64550;SDS011;74341;44.510;-123.270;2024-02-21T01:46:17;5.72;;;3.67;;
64550;SDS011;74341;44.510;-123.270;2024-02-21T01:48:44;5.15;;;3.50;;
64550;SDS011;74341;44.510;-123.270;2024-02-21T01:51:11;6.32;;;3.75;;
64550;SDS011;74341;44.510;-123.270;2024-02-21T01:53:40;6.65;;;3.72;;
64550;SDS011;74341;44.510;-123.270;2024-02-21T01:56:09;3.75;;;3.35;;
64550;SDS011;74341;44.510;-123.270;2024-02-21T01:58:36;8.38;;;3.80;;
64550;SDS011;74341;44.510;-123.270;2024-02-21T02:01:05;5.47;;;3.22;;
64550;SDS011;74341;44.510;-123.270;2024-02-21T02:03:32;3.75;;;3.30;;
64550;SDS011;74341;44.510;-123.270;2024-02-21T02:05:58;5.05;;;3.70;;
64550;SDS011;74341;44.510;-123.270;2024-02-21T02:08:25;6.40;;;3.60;;
64550;SDS011;74341;44.510;-123.270;2024-02-21T02:10:52;5.88;;;3.45;;
64550;SDS011;74341;44.510;-123.270;2024-02-21T02:13:19;5.47;;;3.72;;
64550;SDS011;74341;44.510;-123.270;2024-02-21T02:15:46;4.97;;;3.15;;
64550;SDS011;74341;44.510;-123.270;2024-02-21T02:18:14;4.35;;;3.00;;
64550;SDS011;74341;44.510;-123.270;2024-02-21T02:20:41;5.72;;;3.35;;
64550;SDS011;74341;44.510;-123.270;2024-02-21T02:23:10;5.70;;;3.80;;
64550;SDS011;74341;44.510;-123.270;2024-02-21T02:25:43;5.60;;;3.55;;
64550;SDS011;74341;44.510;-123.270;2024-02-21T02:28:14;5.95;;;3.35;;
64550;SDS011;74341;44.510;-123.270;2024-02-21T02:33:07;5.65;;;3.60;;
64550;SDS011;74341;44.510;-123.270;2024-02-21T02:38:03;5.97;;;3.70;;
64550;SDS011;74341;44.510;-123.270;2024-02-21T02:40:30;4.90;;;3.47;;
64550;SDS011;74341;44.510;-123.270;2024-02-21T02:42:59;7.63;;;4.80;;
64550;SDS011;74341;44.510;-123.270;2024-02-21T02:45:25;7.32;;;4.53;;
64550;SDS011;74341;44.510;-123.270;2024-02-21T02:47:52;6.85;;;4.57;;
64550;SDS011;74341;44.510;-123.270;2024-02-21T02:50:25;6.45;;;3.78;;
64550;SDS011;74341;44.510;-123.270;2024-02-21T02:52:53;4.55;;;3.72;;
64550;SDS011;74341;44.510;-123.270;2024-02-21T02:55:20;6.88;;;3.67;;
64550;SDS011;74341;44.510;-123.270;2024-02-21T02:57:46;7.15;;;3.30;;
64550;SDS011;74341;44.510;-123.270;2024-02-21T03:00:13;4.45;;;2.85;;
64550;SDS011;74341;44.510;-123.270;2024-02-21T03:02:41;5.05;;;2.83;;
64550;SDS011;74341;44.510;-123.270;2024-02-21T03:05:14;5.28;;;2.75;;
64550;SDS011;74341;44.510;-123.270;2024-02-21T03:07:42;3.78;;;2.72;;
64550;SDS011;74341;44.510;-123.270;2024-02-21T03:10:09;3.72;;;2.83;;
64550;SDS011;74341;44.510;-123.270;2024-02-21T03:12:36;5.93;;;3.00;;
64550;SDS011;74341;44.510;-123.270;2024-02-21T03:15:03;3.80;;;2.55;;
64550;SDS011;74341;44.510;-123.270;2024-02-21T03:17:31;5.68;;;2.63;;
64550;SDS011;74341;44.510;-123.270;2024-02-21T03:20:00;4.13;;;3.38;;
64550;SDS011;74341;44.510;-123.270;2024-02-21T03:22:32;3.00;;;2.70;;
64550;SDS011;74341;44.510;-123.270;2024-02-21T03:24:59;4.90;;;3.03;;
64550;SDS011;74341;44.510;-123.270;2024-02-21T03:27:28;3.67;;;2.60;;
64550;SDS011;74341;44.510;-123.270;2024-02-21T03:29:54;4.07;;;2.80;;
64550;SDS011;74341;44.510;-123.270;2024-02-21T03:32:21;4.30;;;2.60;;
64550;SDS011;74341;44.510;-123.270;2024-02-21T03:34:47;4.38;;;2.90;;
64550;SDS011;74341;44.510;-123.270;2024-02-21T03:37:14;2.78;;;2.15;;
64550;SDS011;74341;44.510;-123.270;2024-02-21T03:39:40;2.83;;;2.25;;
64550;SDS011;74341;44.510;-123.270;2024-02-21T03:42:07;3.97;;;2.67;;
64550;SDS011;74341;44.510;-123.270;2024-02-21T03:44:33;3.78;;;2.22;;
64550;SDS011;74341;44.510;-123.270;2024-02-21T03:47:00;4.10;;;1.80;;
64550;SDS011;74341;44.510;-123.270;2024-02-21T03:49:26;2.17;;;2.00;;
64550;SDS011;74341;44.510;-123.270;2024-02-21T03:51:54;4.00;;;2.28;;
64550;SDS011;74341;44.510;-123.270;2024-02-21T03:54:21;2.38;;;1.48;;
64550;SDS011;74341;44.510;-123.270;2024-02-21T03:56:47;2.67;;;1.80;;
64550;SDS011;74341;44.510;-123.270;2024-02-21T03:59:14;1.90;;;1.73;;
64550;SDS011;74341;44.510;-123.270;2024-02-21T04:01:40;2.20;;;1.17;;
64550;SDS011;74341;44.510;-123.270;2024-02-21T04:04:07;1.52;;;1.42;;
64550;SDS011;74341;44.510;-123.270;2024-02-21T04:06:33;1.52;;;1.42;;
64550;SDS011;74341;44.510;-123.270;2024-02-21T04:09:02;0.77;;;0.77;;
64550;SDS011;74341;44.510;-123.270;2024-02-21T04:13:54;1.80;;;1.48;;
64550;SDS011;74341;44.510;-123.270;2024-02-21T04:16:21;1.95;;;1.48;;
64550;SDS011;74341;44.510;-123.270;2024-02-21T04:18:47;2.05;;;1.50;;
64550;SDS011;74341;44.510;-123.270;2024-02-21T04:21:14;3.65;;;1.48;;
64550;SDS011;74341;44.510;-123.270;2024-02-21T04:23:43;1.95;;;1.50;;
64550;SDS011;74341;44.510;-123.270;2024-02-21T04:26:09;3.63;;;1.67;;
64550;SDS011;74341;44.510;-123.270;2024-02-21T04:28:36;6.78;;;1.83;;
64550;SDS011;74341;44.510;-123.270;2024-02-21T04:31:02;2.28;;;1.52;;
64550;SDS011;74341;44.510;-123.270;2024-02-21T04:33:29;3.72;;;1.80;;
64550;SDS011;74341;44.510;-123.270;2024-02-21T04:35:55;4.90;;;1.58;;
64550;SDS011;74341;44.510;-123.270;2024-02-21T04:38:23;2.05;;;1.48;;
64550;SDS011;74341;44.510;-123.270;2024-02-21T04:40:50;2.00;;;1.50;;
64550;SDS011;74341;44.510;-123.270;2024-02-21T04:43:16;2.50;;;1.55;;
64550;SDS011;74341;44.510;-123.270;2024-02-21T04:45:42;2.78;;;1.20;;
64550;SDS011;74341;44.510;-123.270;2024-02-21T04:48:09;0.98;;;0.77;;
64550;SDS011;74341;44.510;-123.270;2024-02-21T04:50:35;3.22;;;0.85;;
64550;SDS011;74341;44.510;-123.270;2024-02-21T04:53:02;5.15;;;0.63;;
64550;SDS011;74341;44.510;-123.270;2024-02-21T04:55:28;1.13;;;0.75;;
64550;SDS011;74341;44.510;-123.270;2024-02-21T04:57:54;1.25;;;0.85;;
64550;SDS011;74341;44.510;-123.270;2024-02-21T05:00:21;2.53;;;1.13;;
64550;SDS011;74341;44.510;-123.270;2024-02-21T05:02:47;4.85;;;1.13;;
64550;SDS011;74341;44.510;-123.270;2024-02-21T05:05:13;1.27;;;1.20;;
64550;SDS011;74341;44.510;-123.270;2024-02-21T05:07:42;1.77;;;1.27;;
64550;SDS011;74341;44.510;-123.270;2024-02-21T05:10:08;1.17;;;1.05;;
64550;SDS011;74341;44.510;-123.270;2024-02-21T05:12:35;2.97;;;1.02;;
64550;SDS011;74341;44.510;-123.270;2024-02-21T05:15:02;4.22;;;0.93;;
64550;SDS011;74341;44.510;-123.270;2024-02-21T05:17:29;1.25;;;0.60;;
64550;SDS011;74341;44.510;-123.270;2024-02-21T05:19:55;1.27;;;0.82;;
64550;SDS011;74341;44.510;-123.270;2024-02-21T05:22:21;1.33;;;0.70;;
64550;SDS011;74341;44.510;-123.270;2024-02-21T05:24:48;2.92;;;1.25;;
64550;SDS011;74341;44.510;-123.270;2024-02-21T05:27:14;9.20;;;4.15;;
64550;SDS011;74341;44.510;-123.270;2024-02-21T05:29:41;10.75;;;4.10;;
64550;SDS011;74341;44.510;-123.270;2024-02-21T05:32:07;3.08;;;1.20;;
64550;SDS011;74341;44.510;-123.270;2024-02-21T05:34:33;8.68;;;2.55;;
64550;SDS011;74341;44.510;-123.270;2024-02-21T05:37:00;5.90;;;1.83;;
64550;SDS011;74341;44.510;-123.270;2024-02-21T05:39:26;22.55;;;8.52;;
64550;SDS011;74341;44.510;-123.270;2024-02-21T05:41:54;27.50;;;5.85;;
64550;SDS011;74341;44.510;-123.270;2024-02-21T05:44:21;16.00;;;4.10;;
64550;SDS011;74341;44.510;-123.270;2024-02-21T05:46:47;8.93;;;2.70;;
64550;SDS011;74341;44.510;-123.270;2024-02-21T05:49:13;2.88;;;1.17;;
64550;SDS011;74341;44.510;-123.270;2024-02-21T05:51:40;3.92;;;1.10;;
64550;SDS011;74341;44.510;-123.270;2024-02-21T05:54:06;3.33;;;1.13;;
64550;SDS011;74341;44.510;-123.270;2024-02-21T05:56:33;0.40;;;0.40;;
64550;SDS011;74341;44.510;-123.270;2024-02-21T05:58:59;1.92;;;0.68;;
64550;SDS011;74341;44.510;-123.270;2024-02-21T06:01:25;3.70;;;0.95;;
64550;SDS011;74341;44.510;-123.270;2024-02-21T06:03:53;2.58;;;0.88;;
64550;SDS011;74341;44.510;-123.270;2024-02-21T06:06:19;1.92;;;0.82;;
64550;SDS011;74341;44.510;-123.270;2024-02-21T06:08:47;2.95;;;0.80;;
64550;SDS011;74341;44.510;-123.270;2024-02-21T06:11:13;1.33;;;0.88;;
64550;SDS011;74341;44.510;-123.270;2024-02-21T06:16:06;2.08;;;0.70;;
64550;SDS011;74341;44.510;-123.270;2024-02-21T06:18:34;1.48;;;0.60;;
64550;SDS011;74341;44.510;-123.270;2024-02-21T06:21:02;8.98;;;3.13;;
64550;SDS011;74341;44.510;-123.270;2024-02-21T06:23:28;2.20;;;1.05;;
64550;SDS011;74341;44.510;-123.270;2024-02-21T06:25:55;6.35;;;2.72;;
64550;SDS011;74341;44.510;-123.270;2024-02-21T06:28:21;4.53;;;2.53;;
64550;SDS011;74341;44.510;-123.270;2024-02-21T06:30:47;5.30;;;2.08;;
64550;SDS011;74341;44.510;-123.270;2024-02-21T06:33:14;5.20;;;3.00;;
64550;SDS011;74341;44.510;-123.270;2024-02-21T06:35:40;8.93;;;4.40;;
64550;SDS011;74341;44.510;-123.270;2024-02-21T06:38:08;8.68;;;4.43;;
64550;SDS011;74341;44.510;-123.270;2024-02-21T06:40:34;4.97;;;2.53;;
64550;SDS011;74341;44.510;-123.270;2024-02-21T06:43:04;3.33;;;1.45;;
64550;SDS011;74341;44.510;-123.270;2024-02-21T06:45:31;22.05;;;12.80;;
64550;SDS011;74341;44.510;-123.270;2024-02-21T06:47:57;11.57;;;5.65;;
64550;SDS011;74341;44.510;-123.270;2024-02-21T06:50:23;12.10;;;8.60;;
64550;SDS011;74341;44.510;-123.270;2024-02-21T06:52:50;4.97;;;3.63;;
64550;SDS011;74341;44.510;-123.270;2024-02-21T06:55:16;9.25;;;7.20;;
64550;SDS011;74341;44.510;-123.270;2024-02-21T06:57:42;3.40;;;3.10;;
64550;SDS011;74341;44.510;-123.270;2024-02-21T07:00:09;5.35;;;4.25;;
64550;SDS011;74341;44.510;-123.270;2024-02-21T07:02:36;3.55;;;3.22;;
64550;SDS011;74341;44.510;-123.270;2024-02-21T07:05:02;3.45;;;2.95;;
64550;SDS011;74341;44.510;-123.270;2024-02-21T07:07:29;3.70;;;1.88;;
64550;SDS011;74341;44.510;-123.270;2024-02-21T07:09:55;4.85;;;1.05;;
64550;SDS011;74341;44.510;-123.270;2024-02-21T07:12:21;1.90;;;1.10;;
64550;SDS011;74341;44.510;-123.270;2024-02-21T07:14:48;2.22;;;1.33;;
64550;SDS011;74341;44.510;-123.270;2024-02-21T07:17:14;1.83;;;0.82;;
64550;SDS011;74341;44.510;-123.270;2024-02-21T07:19:40;1.95;;;0.65;;
64550;SDS011;74341;44.510;-123.270;2024-02-21T07:22:06;0.70;;;0.63;;
64550;SDS011;74341;44.510;-123.270;2024-02-21T07:24:33;0.88;;;0.65;;
64550;SDS011;74341;44.510;-123.270;2024-02-21T07:26:59;3.97;;;0.85;;
64550;SDS011;74341;44.510;-123.270;2024-02-21T07:29:30;1.45;;;0.77;;
64550;SDS011;74341;44.510;-123.270;2024-02-21T07:31:56;1.15;;;0.85;;
64550;SDS011;74341;44.510;-123.270;2024-02-21T07:34:23;2.42;;;0.63;;
64550;SDS011;74341;44.510;-123.270;2024-02-21T07:36:49;0.60;;;0.55;;
64550;SDS011;74341;44.510;-123.270;2024-02-21T07:39:15;3.08;;;0.88;;
64550;SDS011;74341;44.510;-123.270;2024-02-21T07:41:41;1.88;;;0.70;;
64550;SDS011;74341;44.510;-123.270;2024-02-21T07:44:10;1.77;;;0.95;;
64550;SDS011;74341;44.510;-123.270;2024-02-21T07:46:36;1.38;;;0.55;;
64550;SDS011;74341;44.510;-123.270;2024-02-21T07:49:03;0.55;;;0.55;;
64550;SDS011;74341;44.510;-123.270;2024-02-21T07:51:29;2.45;;;1.00;;
64550;SDS011;74341;44.510;-123.270;2024-02-21T07:53:55;2.13;;;0.70;;
64550;SDS011;74341;44.510;-123.270;2024-02-21T07:56:22;1.17;;;0.60;;
64550;SDS011;74341;44.510;-123.270;2024-02-21T07:58:48;2.17;;;0.77;;
64550;SDS011;74341;44.510;-123.270;2024-02-21T08:01:20;1.98;;;0.70;;
64550;SDS011;74341;44.510;-123.270;2024-02-21T08:03:47;0.73;;;0.60;;
64550;SDS011;74341;44.510;-123.270;2024-02-21T08:06:13;1.30;;;0.90;;
64550;SDS011;74341;44.510;-123.270;2024-02-21T08:08:40;2.05;;;0.75;;
64550;SDS011;74341;44.510;-123.270;2024-02-21T08:11:06;0.43;;;0.40;;
64550;SDS011;74341;44.510;-123.270;2024-02-21T08:13:32;0.68;;;0.50;;
64550;SDS011;74341;44.510;-123.270;2024-02-21T08:15:59;1.17;;;0.52;;
64550;SDS011;74341;44.510;-123.270;2024-02-21T08:18:25;1.30;;;0.68;;
64550;SDS011;74341;44.510;-123.270;2024-02-21T08:20:51;2.13;;;1.15;;
64550;SDS011;74341;44.510;-123.270;2024-02-21T08:23:23;1.40;;;0.75;;
64550;SDS011;74341;44.510;-123.270;2024-02-21T08:25:49;1.13;;;0.85;;
64550;SDS011;74341;44.510;-123.270;2024-02-21T08:28:16;0.50;;;0.50;;
64550;SDS011;74341;44.510;-123.270;2024-02-21T08:30:42;2.22;;;0.73;;
64550;SDS011;74341;44.510;-123.270;2024-02-21T08:33:13;1.02;;;0.60;;
64550;SDS011;74341;44.510;-123.270;2024-02-21T08:35:42;1.08;;;0.65;;
64550;SDS011;74341;44.510;-123.270;2024-02-21T08:38:08;1.73;;;0.77;;
64550;SDS011;74341;44.510;-123.270;2024-02-21T08:40:35;2.22;;;0.63;;
64550;SDS011;74341;44.510;-123.270;2024-02-21T08:43:02;0.57;;;0.57;;
64550;SDS011;74341;44.510;-123.270;2024-02-21T08:45:29;1.35;;;0.50;;
64550;SDS011;74341;44.510;-123.270;2024-02-21T08:47:55;0.80;;;0.80;;
64550;SDS011;74341;44.510;-123.270;2024-02-21T08:50:21;3.53;;;1.02;;
64550;SDS011;74341;44.510;-123.270;2024-02-21T08:52:48;0.75;;;0.63;;
64550;SDS011;74341;44.510;-123.270;2024-02-21T08:55:14;1.10;;;0.40;;
64550;SDS011;74341;44.510;-123.270;2024-02-21T08:57:41;0.57;;;0.35;;
64550;SDS011;74341;44.510;-123.270;2024-02-21T09:00:07;0.63;;;0.52;;
64550;SDS011;74341;44.510;-123.270;2024-02-21T09:02:39;0.22;;;0.22;;
64550;SDS011;74341;44.510;-123.270;2024-02-21T09:05:08;0.55;;;0.30;;
64550;SDS011;74341;44.510;-123.270;2024-02-21T09:07:35;1.85;;;0.93;;
64550;SDS011;74341;44.510;-123.270;2024-02-21T09:10:01;0.35;;;0.28;;
64550;SDS011;74341;44.510;-123.270;2024-02-21T09:12:28;0.32;;;0.10;;
64550;SDS011;74341;44.510;-123.270;2024-02-21T09:14:54;2.08;;;0.28;;
64550;SDS011;74341;44.510;-123.270;2024-02-21T09:17:21;1.45;;;0.30;;
64550;SDS011;74341;44.510;-123.270;2024-02-21T09:19:47;0.52;;;0.25;;
64550;SDS011;74341;44.510;-123.270;2024-02-21T09:22:14;1.38;;;0.20;;
64550;SDS011;74341;44.510;-123.270;2024-02-21T09:24:40;1.65;;;0.30;;
64550;SDS011;74341;44.510;-123.270;2024-02-21T09:27:06;3.22;;;0.57;;
64550;SDS011;74341;44.510;-123.270;2024-02-21T09:29:33;2.30;;;0.60;;
64550;SDS011;74341;44.510;-123.270;2024-02-21T09:31:59;0.47;;;0.40;;
64550;SDS011;74341;44.510;-123.270;2024-02-21T09:34:26;0.95;;;0.28;;
64550;SDS011;74341;44.510;-123.270;2024-02-21T09:36:53;0.65;;;0.65;;
64550;SDS011;74341;44.510;-123.270;2024-02-21T09:39:19;2.13;;;0.50;;
64550;SDS011;74341;44.510;-123.270;2024-02-21T09:41:47;0.55;;;0.43;;
64550;SDS011;74341;44.510;-123.270;2024-02-21T09:44:20;0.47;;;0.22;;
64550;SDS011;74341;44.510;-123.270;2024-02-21T09:49:50;0.20;;;0.20;;
64550;SDS011;74341;44.510;-123.270;2024-02-21T09:52:18;1.00;;;0.40;;
64550;SDS011;74341;44.510;-123.270;2024-02-21T09:54:45;0.88;;;0.52;;
64550;SDS011;74341;44.510;-123.270;2024-02-21T09:57:14;0.30;;;0.30;;
64550;SDS011;74341;44.510;-123.270;2024-02-21T09:59:41;0.85;;;0.30;;
64550;SDS011;74341;44.510;-123.270;2024-02-21T10:02:09;0.30;;;0.30;;
64550;SDS011;74341;44.510;-123.270;2024-02-21T10:04:37;0.40;;;0.40;;
64550;SDS011;74341;44.510;-123.270;2024-02-21T10:07:05;0.47;;;0.28;;
64550;SDS011;74341;44.510;-123.270;2024-02-21T10:09:31;0.98;;;0.40;;
64550;SDS011;74341;44.510;-123.270;2024-02-21T10:14:35;0.40;;;0.20;;
64550;SDS011;74341;44.510;-123.270;2024-02-21T10:17:01;1.00;;;0.20;;
64550;SDS011;74341;44.510;-123.270;2024-02-21T10:19:29;0.63;;;0.38;;
64550;SDS011;74341;44.510;-123.270;2024-02-21T10:22:02;4.25;;;0.70;;
64550;SDS011;74341;44.510;-123.270;2024-02-21T10:24:33;0.80;;;0.10;;
64550;SDS011;74341;44.510;-123.270;2024-02-21T10:27:06;0.30;;;0.30;;
64550;SDS011;74341;44.510;-123.270;2024-02-21T10:29:37;1.60;;;0.30;;
64550;SDS011;74341;44.510;-123.270;2024-02-21T10:32:08;0.50;;;0.40;;
64550;SDS011;74341;44.510;-123.270;2024-02-21T10:34:39;0.47;;;0.47;;
64550;SDS011;74341;44.510;-123.270;2024-02-21T10:37:07;1.58;;;0.30;;
64550;SDS011;74341;44.510;-123.270;2024-02-21T10:39:38;0.90;;;0.30;;
64550;SDS011;74341;44.510;-123.270;2024-02-21T10:42:07;1.70;;;0.50;;
64550;SDS011;74341;44.510;-123.270;2024-02-21T10:44:37;0.65;;;0.50;;
64550;SDS011;74341;44.510;-123.270;2024-02-21T10:47:08;1.13;;;0.22;;
64550;SDS011;74341;44.510;-123.270;2024-02-21T10:49:39;1.35;;;0.50;;
64550;SDS011;74341;44.510;-123.270;2024-02-21T10:52:12;0.75;;;0.35;;
64550;SDS011;74341;44.510;-123.270;2024-02-21T10:54:48;1.00;;;0.88;;
64550;SDS011;74341;44.510;-123.270;2024-02-21T10:57:26;2.53;;;0.50;;
64550;SDS011;74341;44.510;-123.270;2024-02-21T11:02:20;1.90;;;0.50;;
64550;SDS011;74341;44.510;-123.270;2024-02-21T11:04:46;0.73;;;0.30;;
64550;SDS011;74341;44.510;-123.270;2024-02-21T11:07:15;1.10;;;0.25;;
64550;SDS011;74341;44.510;-123.270;2024-02-21T11:09:50;0.82;;;0.30;;
64550;SDS011;74341;44.510;-123.270;2024-02-21T11:12:21;0.10;;;0.10;;
64550;SDS011;74341;44.510;-123.270;2024-02-21T11:14:51;2.83;;;0.77;;
64550;SDS011;74341;44.510;-123.270;2024-02-21T11:17:18;1.55;;;0.32;;
64550;SDS011;74341;44.510;-123.270;2024-02-21T11:19:52;1.17;;;0.25;;
64550;SDS011;74341;44.510;-123.270;2024-02-21T11:22:19;1.35;;;0.40;;
64550;SDS011;74341;44.510;-123.270;2024-02-21T11:24:50;1.02;;;0.50;;
64550;SDS011;74341;44.510;-123.270;2024-02-21T11:27:19;0.95;;;0.43;;
64550;SDS011;74341;44.510;-123.270;2024-02-21T11:29:47;0.40;;;0.35;;
64550;SDS011;74341;44.510;-123.270;2024-02-21T11:32:19;1.45;;;0.50;;
64550;SDS011;74341;44.510;-123.270;2024-02-21T11:34:59;0.32;;;0.28;;
64550;SDS011;74341;44.510;-123.270;2024-02-21T11:37:29;0.35;;;0.35;;
64550;SDS011;74341;44.510;-123.270;2024-02-21T11:39:59;0.28;;;0.28;;
64550;SDS011;74341;44.510;-123.270;2024-02-21T11:42:26;0.65;;;0.40;;
64550;SDS011;74341;44.510;-123.270;2024-02-21T11:44:54;1.35;;;0.60;;
64550;SDS011;74341;44.510;-123.270;2024-02-21T11:47:24;0.93;;;0.40;;
64550;SDS011;74341;44.510;-123.270;2024-02-21T11:49:51;0.03;;;0.03;;
64550;SDS011;74341;44.510;-123.270;2024-02-21T11:52:24;0.20;;;0.20;;
64550;SDS011;74341;44.510;-123.270;2024-02-21T11:54:51;0.20;;;0.20;;
64550;SDS011;74341;44.510;-123.270;2024-02-21T11:57:18;0.10;;;0.10;;
64550;SDS011;74341;44.510;-123.270;2024-02-21T11:59:45;0.90;;;0.22;;
64550;SDS011;74341;44.510;-123.270;2024-02-21T12:02:12;0.47;;;0.43;;
64550;SDS011;74341;44.510;-123.270;2024-02-21T12:04:40;0.35;;;0.30;;
64550;SDS011;74341;44.510;-123.270;2024-02-21T12:07:07;0.10;;;0.10;;
64550;SDS011;74341;44.510;-123.270;2024-02-21T12:09:34;0.10;;;0.10;;
64550;SDS011;74341;44.510;-123.270;2024-02-21T12:12:04;0.63;;;0.10;;
64550;SDS011;74341;44.510;-123.270;2024-02-21T12:14:32;0.15;;;0.10;;
64550;SDS011;74341;44.510;-123.270;2024-02-21T12:17:01;0.32;;;0.10;;
64550;SDS011;74341;44.510;-123.270;2024-02-21T12:19:31;0.22;;;0.20;;
64550;SDS011;74341;44.510;-123.270;2024-02-21T12:21:59;0.10;;;0.00;;
64550;SDS011;74341;44.510;-123.270;2024-02-21T12:24:26;0.60;;;0.20;;
64550;SDS011;74341;44.510;-123.270;2024-02-21T12:26:54;0.10;;;0.10;;
64550;SDS011;74341;44.510;-123.270;2024-02-21T12:29:22;0.10;;;0.10;;
64550;SDS011;74341;44.510;-123.270;2024-02-21T12:31:52;0.47;;;0.20;;
64550;SDS011;74341;44.510;-123.270;2024-02-21T12:34:20;0.10;;;0.10;;
64550;SDS011;74341;44.510;-123.270;2024-02-21T12:36:50;0.13;;;0.00;;
64550;SDS011;74341;44.510;-123.270;2024-02-21T12:39:19;0.10;;;0.03;;
64550;SDS011;74341;44.510;-123.270;2024-02-21T12:41:45;1.75;;;0.10;;
64550;SDS011;74341;44.510;-123.270;2024-02-21T12:44:12;0.30;;;0.20;;
64550;SDS011;74341;44.510;-123.270;2024-02-21T12:46:38;0.60;;;0.30;;
64550;SDS011;74341;44.510;-123.270;2024-02-21T12:49:08;0.30;;;0.20;;
64550;SDS011;74341;44.510;-123.270;2024-02-21T12:51:34;0.15;;;0.08;;
64550;SDS011;74341;44.510;-123.270;2024-02-21T12:54:01;0.98;;;0.10;;
64550;SDS011;74341;44.510;-123.270;2024-02-21T12:56:31;1.65;;;0.20;;
64550;SDS011;74341;44.510;-123.270;2024-02-21T12:58:57;0.10;;;0.10;;
64550;SDS011;74341;44.510;-123.270;2024-02-21T13:01:24;0.82;;;0.20;;
64550;SDS011;74341;44.510;-123.270;2024-02-21T13:03:51;0.30;;;0.10;;
64550;SDS011;74341;44.510;-123.270;2024-02-21T13:06:19;0.10;;;0.10;;
64550;SDS011;74341;44.510;-123.270;2024-02-21T13:08:45;0.10;;;0.10;;
64550;SDS011;74341;44.510;-123.270;2024-02-21T13:11:12;0.22;;;0.10;;
64550;SDS011;74341;44.510;-123.270;2024-02-21T13:13:39;3.50;;;0.28;;
64550;SDS011;74341;44.510;-123.270;2024-02-21T13:16:06;0.00;;;0.00;;
64550;SDS011;74341;44.510;-123.270;2024-02-21T13:18:34;0.28;;;0.17;;
64550;SDS011;74341;44.510;-123.270;2024-02-21T13:21:03;0.20;;;0.10;;
64550;SDS011;74341;44.510;-123.270;2024-02-21T13:23:30;1.52;;;0.15;;
64550;SDS011;74341;44.510;-123.270;2024-02-21T13:25:56;0.10;;;0.03;;
64550;SDS011;74341;44.510;-123.270;2024-02-21T13:28:23;0.15;;;0.15;;
64550;SDS011;74341;44.510;-123.270;2024-02-21T13:30:49;0.08;;;0.08;;
64550;SDS011;74341;44.510;-123.270;2024-02-21T13:33:16;0.45;;;0.10;;
64550;SDS011;74341;44.510;-123.270;2024-02-21T13:38:08;0.20;;;0.20;;
64550;SDS011;74341;44.510;-123.270;2024-02-21T13:40:35;0.20;;;0.20;;
64550;SDS011;74341;44.510;-123.270;2024-02-21T13:43:01;1.38;;;0.17;;
64550;SDS011;74341;44.510;-123.270;2024-02-21T13:45:28;0.10;;;0.10;;
64550;SDS011;74341;44.510;-123.270;2024-02-21T13:47:54;0.30;;;0.10;;
64550;SDS011;74341;44.510;-123.270;2024-02-21T13:50:27;0.77;;;0.40;;
64550;SDS011;74341;44.510;-123.270;2024-02-21T13:52:56;0.00;;;0.00;;
64550;SDS011;74341;44.510;-123.270;2024-02-21T13:55:23;0.10;;;0.00;;
64550;SDS011;74341;44.510;-123.270;2024-02-21T13:57:52;0.88;;;0.20;;
64550;SDS011;74341;44.510;-123.270;2024-02-21T14:00:19;0.00;;;0.00;;
64550;SDS011;74341;44.510;-123.270;2024-02-21T14:02:46;0.00;;;0.00;;
64550;SDS011;74341;44.510;-123.270;2024-02-21T14:05:12;0.38;;;0.10;;
64550;SDS011;74341;44.510;-123.270;2024-02-21T14:07:39;0.75;;;0.00;;
64550;SDS011;74341;44.510;-123.270;2024-02-21T14:10:06;0.00;;;0.00;;
64550;SDS011;74341;44.510;-123.270;2024-02-21T14:12:34;0.55;;;0.13;;
64550;SDS011;74341;44.510;-123.270;2024-02-21T14:15:01;0.10;;;0.00;;
64550;SDS011;74341;44.510;-123.270;2024-02-21T14:17:27;0.95;;;0.10;;
64550;SDS011;74341;44.510;-123.270;2024-02-21T14:19:53;0.10;;;0.10;;
64550;SDS011;74341;44.510;-123.270;2024-02-21T14:22:20;0.25;;;0.17;;
64550;SDS011;74341;44.510;-123.270;2024-02-21T14:24:46;0.70;;;0.00;;
64550;SDS011;74341;44.510;-123.270;2024-02-21T14:27:12;1.45;;;0.10;;
64550;SDS011;74341;44.510;-123.270;2024-02-21T14:29:38;0.00;;;0.00;;
64550;SDS011;74341;44.510;-123.270;2024-02-21T14:32:05;0.40;;;0.10;;